sensor_id;sensor_type;location;lat;lon;timestamp;P1;durP1;ratioP1;P2;durP2;ratioP2
62050;SDS011;48008;51.204;6.766;2023-03-15T00:01:46;16.95;;;3.88;;
62050;SDS011;48008;51.204;6.766;2023-03-15T00:04:13;12.60;;;3.75;;
62050;SDS011;48008;51.204;6.766;2023-03-15T00:06:39;21.13;;;4.32;;
62050;SDS011;48008;51.204;6.766;2023-03-15T00:09:06;17.15;;;3.80;;
62050;SDS011;48008;51.204;6.766;2023-03-15T00:11:33;16.00;;;4.07;;
62050;SDS011;48008;51.204;6.766;2023-03-15T00:14:00;12.88;;;4.25;;
62050;SDS011;48008;51.204;6.766;2023-03-15T00:16:27;18.58;;;4.30;;
62050;SDS011;48008;51.204;6.766;2023-03-15T00:18:54;22.60;;;4.70;;
62050;SDS011;48008;51.204;6.766;2023-03-15T00:21:22;21.85;;;4.57;;
62050;SDS011;48008;51.204;6.766;2023-03-15T00:23:49;19.65;;;4.50;;
62050;SDS011;48008;51.204;6.766;2023-03-15T00:26:16;13.65;;;4.50;;
62050;SDS011;48008;51.204;6.766;2023-03-15T00:28:42;17.90;;;4.68;;
62050;SDS011;48008;51.204;6.766;2023-03-15T00:31:14;21.52;;;4.75;;
62050;SDS011;48008;51.204;6.766;2023-03-15T00:33:43;12.07;;;4.20;;
62050;SDS011;48008;51.204;6.766;2023-03-15T00:36:10;15.82;;;4.68;;
62050;SDS011;48008;51.204;6.766;2023-03-15T00:38:38;14.13;;;4.82;;
62050;SDS011;48008;51.204;6.766;2023-03-15T00:41:06;13.00;;;4.75;;
62050;SDS011;48008;51.204;6.766;2023-03-15T00:43:35;13.45;;;5.18;;
62050;SDS011;48008;51.204;6.766;2023-03-15T00:46:02;16.55;;;5.18;;
62050;SDS011;48008;51.204;6.766;2023-03-15T00:48:29;24.27;;;5.57;;
62050;SDS011;48008;51.204;6.766;2023-03-15T00:51:06;20.95;;;5.32;;
62050;SDS011;48008;51.204;6.766;2023-03-15T00:53:38;21.08;;;5.97;;
62050;SDS011;48008;51.204;6.766;2023-03-15T00:56:08;26.73;;;6.43;;
62050;SDS011;48008;51.204;6.766;2023-03-15T00:58:38;18.30;;;5.82;;
62050;SDS011;48008;51.204;6.766;2023-03-15T01:01:08;19.98;;;6.60;;
62050;SDS011;48008;51.204;6.766;2023-03-15T01:03:37;15.52;;;6.13;;
62050;SDS011;48008;51.204;6.766;2023-03-15T01:06:07;23.65;;;6.60;;
62050;SDS011;48008;51.204;6.766;2023-03-15T01:08:35;22.77;;;6.82;;
62050;SDS011;48008;51.204;6.766;2023-03-15T01:11:03;14.90;;;6.45;;
62050;SDS011;48008;51.204;6.766;2023-03-15T01:13:32;19.80;;;6.68;;
62050;SDS011;48008;51.204;6.766;2023-03-15T01:15:59;22.45;;;6.90;;
62050;SDS011;48008;51.204;6.766;2023-03-15T01:18:26;26.75;;;7.75;;
62050;SDS011;48008;51.204;6.766;2023-03-15T01:20:55;18.17;;;6.43;;
62050;SDS011;48008;51.204;6.766;2023-03-15T01:23:22;23.27;;;6.70;;
62050;SDS011;48008;51.204;6.766;2023-03-15T01:25:49;20.52;;;7.68;;
62050;SDS011;48008;51.204;6.766;2023-03-15T01:28:16;24.80;;;7.32;;
62050;SDS011;48008;51.204;6.766;2023-03-15T01:30:47;27.17;;;6.93;;
62050;SDS011;48008;51.204;6.766;2023-03-15T01:33:15;20.05;;;7.15;;
62050;SDS011;48008;51.204;6.766;2023-03-15T01:35:42;20.23;;;7.18;;
62050;SDS011;48008;51.204;6.766;2023-03-15T01:38:09;19.08;;;6.68;;
62050;SDS011;48008;51.204;6.766;2023-03-15T01:40:44;19.13;;;6.60;;
62050;SDS011;48008;51.204;6.766;2023-03-15T01:43:15;18.85;;;6.68;;
62050;SDS011;48008;51.204;6.766;2023-03-15T01:46:13;22.17;;;7.90;;
62050;SDS011;48008;51.204;6.766;2023-03-15T01:48:38;22.70;;;8.05;;
62050;SDS011;48008;51.204;6.766;2023-03-15T01:51:14;23.73;;;7.82;;
62050;SDS011;48008;51.204;6.766;2023-03-15T01:54:05;24.33;;;8.88;;
62050;SDS011;48008;51.204;6.766;2023-03-15T01:56:37;21.13;;;7.97;;
62050;SDS011;48008;51.204;6.766;2023-03-15T01:59:12;21.70;;;9.02;;
62050;SDS011;48008;51.204;6.766;2023-03-15T02:01:42;24.67;;;8.40;;
62050;SDS011;48008;51.204;6.766;2023-03-15T02:04:12;21.25;;;8.75;;
62050;SDS011;48008;51.204;6.766;2023-03-15T02:06:45;29.90;;;9.25;;
62050;SDS011;48008;51.204;6.766;2023-03-15T02:09:13;27.88;;;8.90;;
62050;SDS011;48008;51.204;6.766;2023-03-15T02:11:44;25.95;;;10.32;;
62050;SDS011;48008;51.204;6.766;2023-03-15T02:14:11;26.33;;;10.18;;
62050;SDS011;48008;51.204;6.766;2023-03-15T02:16:41;26.77;;;10.15;;
62050;SDS011;48008;51.204;6.766;2023-03-15T02:19:17;22.52;;;9.40;;
62050;SDS011;48008;51.204;6.766;2023-03-15T02:22:00;22.10;;;9.13;;
62050;SDS011;48008;51.204;6.766;2023-03-15T02:24:45;21.90;;;7.97;;
62050;SDS011;48008;51.204;6.766;2023-03-15T02:27:25;17.08;;;7.57;;
62050;SDS011;48008;51.204;6.766;2023-03-15T02:29:55;23.02;;;7.65;;
62050;SDS011;48008;51.204;6.766;2023-03-15T02:32:22;17.60;;;7.30;;
62050;SDS011;48008;51.204;6.766;2023-03-15T02:34:49;17.17;;;7.13;;
62050;SDS011;48008;51.204;6.766;2023-03-15T02:37:16;15.88;;;6.47;;
62050;SDS011;48008;51.204;6.766;2023-03-15T02:39:44;21.60;;;7.70;;
62050;SDS011;48008;51.204;6.766;2023-03-15T02:42:11;17.70;;;7.80;;
62050;SDS011;48008;51.204;6.766;2023-03-15T02:44:40;17.75;;;8.30;;
62050;SDS011;48008;51.204;6.766;2023-03-15T02:47:13;19.60;;;7.95;;
62050;SDS011;48008;51.204;6.766;2023-03-15T02:49:45;20.88;;;8.98;;
62050;SDS011;48008;51.204;6.766;2023-03-15T02:52:18;21.77;;;9.18;;
62050;SDS011;48008;51.204;6.766;2023-03-15T02:54:45;18.75;;;9.07;;
62050;SDS011;48008;51.204;6.766;2023-03-15T02:57:13;23.88;;;9.13;;
62050;SDS011;48008;51.204;6.766;2023-03-15T02:59:42;21.05;;;9.63;;
62050;SDS011;48008;51.204;6.766;2023-03-15T03:02:10;22.63;;;10.10;;
62050;SDS011;48008;51.204;6.766;2023-03-15T03:04:40;21.17;;;9.27;;
62050;SDS011;48008;51.204;6.766;2023-03-15T03:07:07;20.42;;;8.93;;
62050;SDS011;48008;51.204;6.766;2023-03-15T03:09:42;24.27;;;9.57;;
62050;SDS011;48008;51.204;6.766;2023-03-15T03:12:10;19.77;;;9.00;;
62050;SDS011;48008;51.204;6.766;2023-03-15T03:14:37;24.05;;;9.35;;
62050;SDS011;48008;51.204;6.766;2023-03-15T03:17:10;21.50;;;9.30;;
62050;SDS011;48008;51.204;6.766;2023-03-15T03:19:38;22.05;;;9.38;;
62050;SDS011;48008;51.204;6.766;2023-03-15T03:22:05;19.95;;;9.05;;
62050;SDS011;48008;51.204;6.766;2023-03-15T03:24:32;22.05;;;8.98;;
62050;SDS011;48008;51.204;6.766;2023-03-15T03:26:59;21.33;;;9.02;;
62050;SDS011;48008;51.204;6.766;2023-03-15T03:29:29;20.20;;;9.52;;
62050;SDS011;48008;51.204;6.766;2023-03-15T03:31:59;21.50;;;10.07;;
62050;SDS011;48008;51.204;6.766;2023-03-15T03:34:25;20.77;;;9.52;;
62050;SDS011;48008;51.204;6.766;2023-03-15T03:36:54;21.77;;;9.68;;
62050;SDS011;48008;51.204;6.766;2023-03-15T03:39:34;20.00;;;9.57;;
62050;SDS011;48008;51.204;6.766;2023-03-15T03:42:01;20.85;;;10.15;;
62050;SDS011;48008;51.204;6.766;2023-03-15T03:44:28;23.45;;;10.40;;
62050;SDS011;48008;51.204;6.766;2023-03-15T03:46:54;21.33;;;10.07;;
62050;SDS011;48008;51.204;6.766;2023-03-15T03:49:21;20.38;;;10.20;;
62050;SDS011;48008;51.204;6.766;2023-03-15T03:51:48;22.27;;;10.60;;
62050;SDS011;48008;51.204;6.766;2023-03-15T03:54:15;23.73;;;9.85;;
62050;SDS011;48008;51.204;6.766;2023-03-15T03:56:43;23.70;;;9.52;;
62050;SDS011;48008;51.204;6.766;2023-03-15T03:59:09;26.38;;;10.32;;
62050;SDS011;48008;51.204;6.766;2023-03-15T04:01:47;20.27;;;9.93;;
62050;SDS011;48008;51.204;6.766;2023-03-15T04:04:14;22.00;;;10.23;;
62050;SDS011;48008;51.204;6.766;2023-03-15T04:06:42;23.45;;;10.55;;
62050;SDS011;48008;51.204;6.766;2023-03-15T04:09:12;20.33;;;10.98;;
62050;SDS011;48008;51.204;6.766;2023-03-15T04:11:42;20.98;;;10.93;;
62050;SDS011;48008;51.204;6.766;2023-03-15T04:14:10;24.65;;;9.98;;
62050;SDS011;48008;51.204;6.766;2023-03-15T04:16:37;17.95;;;9.05;;
62050;SDS011;48008;51.204;6.766;2023-03-15T04:19:07;21.15;;;10.70;;
62050;SDS011;48008;51.204;6.766;2023-03-15T04:21:35;23.05;;;10.40;;
62050;SDS011;48008;51.204;6.766;2023-03-15T04:24:17;23.77;;;10.68;;
62050;SDS011;48008;51.204;6.766;2023-03-15T04:26:56;20.27;;;10.57;;
62050;SDS011;48008;51.204;6.766;2023-03-15T04:29:41;29.30;;;11.43;;
62050;SDS011;48008;51.204;6.766;2023-03-15T04:32:29;21.15;;;9.90;;
62050;SDS011;48008;51.204;6.766;2023-03-15T04:35:08;20.73;;;10.38;;
62050;SDS011;48008;51.204;6.766;2023-03-15T04:37:43;20.15;;;10.68;;
62050;SDS011;48008;51.204;6.766;2023-03-15T04:40:29;21.85;;;10.13;;
62050;SDS011;48008;51.204;6.766;2023-03-15T04:43:20;18.10;;;9.32;;
62050;SDS011;48008;51.204;6.766;2023-03-15T04:46:00;16.95;;;9.20;;
62050;SDS011;48008;51.204;6.766;2023-03-15T04:48:47;16.00;;;8.93;;
62050;SDS011;48008;51.204;6.766;2023-03-15T04:51:33;16.17;;;8.48;;
62050;SDS011;48008;51.204;6.766;2023-03-15T04:54:20;14.30;;;6.82;;
62050;SDS011;48008;51.204;6.766;2023-03-15T04:57:02;14.43;;;7.32;;
62050;SDS011;48008;51.204;6.766;2023-03-15T04:59:49;12.27;;;7.00;;
62050;SDS011;48008;51.204;6.766;2023-03-15T05:02:29;15.35;;;7.07;;
62050;SDS011;48008;51.204;6.766;2023-03-15T05:05:15;14.25;;;6.75;;
62050;SDS011;48008;51.204;6.766;2023-03-15T05:07:53;14.02;;;6.95;;
62050;SDS011;48008;51.204;6.766;2023-03-15T05:10:29;12.38;;;6.55;;
62050;SDS011;48008;51.204;6.766;2023-03-15T05:13:13;13.10;;;7.25;;
62050;SDS011;48008;51.204;6.766;2023-03-15T05:16:00;12.38;;;7.35;;
62050;SDS011;48008;51.204;6.766;2023-03-15T05:18:42;15.07;;;7.47;;
62050;SDS011;48008;51.204;6.766;2023-03-15T05:21:28;16.90;;;8.02;;
62050;SDS011;48008;51.204;6.766;2023-03-15T05:24:05;16.75;;;7.88;;
62050;SDS011;48008;51.204;6.766;2023-03-15T05:26:51;14.35;;;8.43;;
62050;SDS011;48008;51.204;6.766;2023-03-15T05:29:39;18.50;;;8.60;;
62050;SDS011;48008;51.204;6.766;2023-03-15T05:32:26;14.75;;;8.32;;
62050;SDS011;48008;51.204;6.766;2023-03-15T05:35:12;15.63;;;8.82;;
62050;SDS011;48008;51.204;6.766;2023-03-15T05:37:46;17.10;;;9.52;;
62050;SDS011;48008;51.204;6.766;2023-03-15T05:40:27;19.60;;;9.77;;
62050;SDS011;48008;51.204;6.766;2023-03-15T05:43:04;19.23;;;9.85;;
62050;SDS011;48008;51.204;6.766;2023-03-15T05:45:51;17.38;;;9.68;;
62050;SDS011;48008;51.204;6.766;2023-03-15T05:48:36;17.95;;;9.32;;
62050;SDS011;48008;51.204;6.766;2023-03-15T05:51:23;16.98;;;9.75;;
62050;SDS011;48008;51.204;6.766;2023-03-15T05:54:06;21.05;;;10.38;;
62050;SDS011;48008;51.204;6.766;2023-03-15T05:56:45;19.20;;;10.40;;
62050;SDS011;48008;51.204;6.766;2023-03-15T05:59:32;19.90;;;10.30;;
62050;SDS011;48008;51.204;6.766;2023-03-15T06:02:17;18.88;;;9.20;;
62050;SDS011;48008;51.204;6.766;2023-03-15T06:04:59;17.65;;;9.40;;
62050;SDS011;48008;51.204;6.766;2023-03-15T06:07:26;17.20;;;9.43;;
62050;SDS011;48008;51.204;6.766;2023-03-15T06:09:53;21.42;;;10.40;;
62050;SDS011;48008;51.204;6.766;2023-03-15T06:12:20;19.65;;;10.65;;
62050;SDS011;48008;51.204;6.766;2023-03-15T06:14:47;19.48;;;10.05;;
62050;SDS011;48008;51.204;6.766;2023-03-15T06:17:14;20.35;;;9.95;;
62050;SDS011;48008;51.204;6.766;2023-03-15T06:19:42;19.10;;;9.93;;
62050;SDS011;48008;51.204;6.766;2023-03-15T06:22:09;25.92;;;11.07;;
62050;SDS011;48008;51.204;6.766;2023-03-15T06:24:43;22.20;;;11.02;;
62050;SDS011;48008;51.204;6.766;2023-03-15T06:27:10;20.48;;;11.25;;
62050;SDS011;48008;51.204;6.766;2023-03-15T06:29:37;18.15;;;10.65;;
62050;SDS011;48008;51.204;6.766;2023-03-15T06:32:04;20.58;;;11.50;;
62050;SDS011;48008;51.204;6.766;2023-03-15T06:34:33;16.73;;;9.45;;
62050;SDS011;48008;51.204;6.766;2023-03-15T06:36:59;23.55;;;11.80;;
62050;SDS011;48008;51.204;6.766;2023-03-15T06:39:26;17.63;;;9.77;;
62050;SDS011;48008;51.204;6.766;2023-03-15T06:41:53;21.95;;;10.13;;
62050;SDS011;48008;51.204;6.766;2023-03-15T06:44:25;24.95;;;10.45;;
62050;SDS011;48008;51.204;6.766;2023-03-15T06:46:56;18.45;;;10.40;;
62050;SDS011;48008;51.204;6.766;2023-03-15T06:49:22;21.88;;;11.35;;
62050;SDS011;48008;51.204;6.766;2023-03-15T06:51:49;20.38;;;11.15;;
62050;SDS011;48008;51.204;6.766;2023-03-15T06:54:16;21.08;;;11.50;;
62050;SDS011;48008;51.204;6.766;2023-03-15T06:56:55;24.77;;;11.32;;
62050;SDS011;48008;51.204;6.766;2023-03-15T06:59:23;20.38;;;10.57;;
62050;SDS011;48008;51.204;6.766;2023-03-15T07:01:49;22.77;;;10.55;;
62050;SDS011;48008;51.204;6.766;2023-03-15T07:04:16;23.40;;;10.85;;
62050;SDS011;48008;51.204;6.766;2023-03-15T07:06:43;20.33;;;9.90;;
62050;SDS011;48008;51.204;6.766;2023-03-15T07:09:10;20.65;;;10.73;;
62050;SDS011;48008;51.204;6.766;2023-03-15T07:11:37;21.65;;;11.18;;
62050;SDS011;48008;51.204;6.766;2023-03-15T07:14:04;20.45;;;11.27;;
62050;SDS011;48008;51.204;6.766;2023-03-15T07:16:31;20.83;;;10.95;;
62050;SDS011;48008;51.204;6.766;2023-03-15T07:18:58;23.05;;;11.60;;
62050;SDS011;48008;51.204;6.766;2023-03-15T07:21:25;24.83;;;11.10;;
62050;SDS011;48008;51.204;6.766;2023-03-15T07:23:52;23.58;;;11.93;;
62050;SDS011;48008;51.204;6.766;2023-03-15T07:26:19;23.52;;;12.18;;
62050;SDS011;48008;51.204;6.766;2023-03-15T07:28:46;27.83;;;11.85;;
62050;SDS011;48008;51.204;6.766;2023-03-15T07:31:13;22.63;;;11.73;;
62050;SDS011;48008;51.204;6.766;2023-03-15T07:33:40;21.30;;;11.73;;
62050;SDS011;48008;51.204;6.766;2023-03-15T07:36:07;23.42;;;12.07;;
62050;SDS011;48008;51.204;6.766;2023-03-15T07:38:34;24.60;;;11.20;;
62050;SDS011;48008;51.204;6.766;2023-03-15T07:41:02;25.65;;;11.75;;
62050;SDS011;48008;51.204;6.766;2023-03-15T07:43:30;23.25;;;11.07;;
62050;SDS011;48008;51.204;6.766;2023-03-15T07:46:08;24.20;;;9.77;;
62050;SDS011;48008;51.204;6.766;2023-03-15T07:48:35;23.83;;;10.13;;
62050;SDS011;48008;51.204;6.766;2023-03-15T07:51:02;17.60;;;9.70;;
62050;SDS011;48008;51.204;6.766;2023-03-15T07:53:28;21.98;;;9.75;;
62050;SDS011;48008;51.204;6.766;2023-03-15T07:55:55;25.13;;;10.60;;
62050;SDS011;48008;51.204;6.766;2023-03-15T07:58:22;20.02;;;9.20;;
62050;SDS011;48008;51.204;6.766;2023-03-15T08:00:52;22.67;;;9.73;;
62050;SDS011;48008;51.204;6.766;2023-03-15T08:03:20;16.67;;;8.88;;
62050;SDS011;48008;51.204;6.766;2023-03-15T08:05:46;21.45;;;8.65;;
62050;SDS011;48008;51.204;6.766;2023-03-15T08:08:13;17.35;;;8.45;;
62050;SDS011;48008;51.204;6.766;2023-03-15T08:10:40;17.65;;;8.38;;
62050;SDS011;48008;51.204;6.766;2023-03-15T08:13:08;24.38;;;7.85;;
62050;SDS011;48008;51.204;6.766;2023-03-15T08:15:35;17.77;;;7.85;;
62050;SDS011;48008;51.204;6.766;2023-03-15T08:18:02;21.85;;;7.50;;
62050;SDS011;48008;51.204;6.766;2023-03-15T08:20:30;18.48;;;7.40;;
62050;SDS011;48008;51.204;6.766;2023-03-15T08:22:59;21.77;;;6.88;;
62050;SDS011;48008;51.204;6.766;2023-03-15T08:25:27;18.85;;;7.40;;
62050;SDS011;48008;51.204;6.766;2023-03-15T08:27:54;13.95;;;6.38;;
62050;SDS011;48008;51.204;6.766;2023-03-15T08:30:21;14.18;;;6.32;;
62050;SDS011;48008;51.204;6.766;2023-03-15T08:32:49;14.75;;;6.28;;
62050;SDS011;48008;51.204;6.766;2023-03-15T08:35:18;18.95;;;6.68;;
62050;SDS011;48008;51.204;6.766;2023-03-15T08:37:47;23.02;;;7.70;;
62050;SDS011;48008;51.204;6.766;2023-03-15T08:40:16;19.35;;;7.55;;
62050;SDS011;48008;51.204;6.766;2023-03-15T08:42:52;20.25;;;6.85;;
62050;SDS011;48008;51.204;6.766;2023-03-15T08:45:19;15.77;;;7.03;;
62050;SDS011;48008;51.204;6.766;2023-03-15T08:47:47;20.98;;;7.35;;
62050;SDS011;48008;51.204;6.766;2023-03-15T08:50:14;18.35;;;7.28;;
62050;SDS011;48008;51.204;6.766;2023-03-15T08:52:41;20.77;;;7.60;;
62050;SDS011;48008;51.204;6.766;2023-03-15T08:55:09;17.20;;;6.75;;
62050;SDS011;48008;51.204;6.766;2023-03-15T08:57:39;18.30;;;6.38;;
62050;SDS011;48008;51.204;6.766;2023-03-15T09:00:07;19.05;;;6.25;;
62050;SDS011;48008;51.204;6.766;2023-03-15T09:02:45;13.32;;;6.03;;
62050;SDS011;48008;51.204;6.766;2023-03-15T09:05:14;12.57;;;4.82;;
62050;SDS011;48008;51.204;6.766;2023-03-15T09:07:41;22.77;;;8.13;;
62050;SDS011;48008;51.204;6.766;2023-03-15T09:10:09;15.30;;;4.65;;
62050;SDS011;48008;51.204;6.766;2023-03-15T09:12:41;18.58;;;4.50;;
62050;SDS011;48008;51.204;6.766;2023-03-15T09:15:09;13.82;;;4.60;;
62050;SDS011;48008;51.204;6.766;2023-03-15T09:17:37;14.50;;;4.53;;
62050;SDS011;48008;51.204;6.766;2023-03-15T09:20:05;72.95;;;25.00;;
62050;SDS011;48008;51.204;6.766;2023-03-15T09:22:40;17.80;;;4.90;;
62050;SDS011;48008;51.204;6.766;2023-03-15T09:25:07;14.57;;;4.90;;
62050;SDS011;48008;51.204;6.766;2023-03-15T09:27:35;13.38;;;4.20;;
62050;SDS011;48008;51.204;6.766;2023-03-15T09:30:02;10.55;;;4.93;;
62050;SDS011;48008;51.204;6.766;2023-03-15T09:32:29;15.15;;;6.13;;
62050;SDS011;48008;51.204;6.766;2023-03-15T09:35:02;15.73;;;6.45;;
62050;SDS011;48008;51.204;6.766;2023-03-15T09:37:30;16.13;;;5.97;;
62050;SDS011;48008;51.204;6.766;2023-03-15T09:39:57;13.55;;;5.85;;
62050;SDS011;48008;51.204;6.766;2023-03-15T09:42:27;21.45;;;5.70;;
62050;SDS011;48008;51.204;6.766;2023-03-15T09:47:59;16.27;;;6.07;;
62050;SDS011;48008;51.204;6.766;2023-03-15T09:50:51;17.63;;;6.05;;
62050;SDS011;48008;51.204;6.766;2023-03-15T09:56:20;17.30;;;6.15;;
62050;SDS011;48008;51.204;6.766;2023-03-15T09:58:51;19.85;;;5.85;;
62050;SDS011;48008;51.204;6.766;2023-03-15T10:04:37;12.05;;;4.20;;
62050;SDS011;48008;51.204;6.766;2023-03-15T10:06:56;11.18;;;4.57;;
62050;SDS011;48008;51.204;6.766;2023-03-15T10:09:29;15.13;;;4.32;;
62050;SDS011;48008;51.204;6.766;2023-03-15T10:12:14;16.95;;;4.97;;
62050;SDS011;48008;51.204;6.766;2023-03-15T10:15:28;13.82;;;4.50;;
62050;SDS011;48008;51.204;6.766;2023-03-15T10:18:00;13.20;;;4.57;;
62050;SDS011;48008;51.204;6.766;2023-03-15T10:20:40;12.30;;;4.80;;
62050;SDS011;48008;51.204;6.766;2023-03-15T10:23:14;15.85;;;5.00;;
62050;SDS011;48008;51.204;6.766;2023-03-15T10:26:05;16.65;;;4.75;;
62050;SDS011;48008;51.204;6.766;2023-03-15T10:28:34;21.70;;;5.07;;
62050;SDS011;48008;51.204;6.766;2023-03-15T10:31:09;16.23;;;4.72;;
62050;SDS011;48008;51.204;6.766;2023-03-15T10:33:43;18.67;;;5.10;;
62050;SDS011;48008;51.204;6.766;2023-03-15T10:36:13;20.13;;;4.90;;
62050;SDS011;48008;51.204;6.766;2023-03-15T10:38:44;12.68;;;4.68;;
62050;SDS011;48008;51.204;6.766;2023-03-15T10:41:11;17.48;;;4.18;;
62050;SDS011;48008;51.204;6.766;2023-03-15T10:46:21;15.43;;;3.90;;
62050;SDS011;48008;51.204;6.766;2023-03-15T10:48:57;13.63;;;3.50;;
62050;SDS011;48008;51.204;6.766;2023-03-15T10:51:39;12.77;;;3.53;;
62050;SDS011;48008;51.204;6.766;2023-03-15T10:54:11;15.73;;;3.63;;
62050;SDS011;48008;51.204;6.766;2023-03-15T10:56:49;11.10;;;3.25;;
62050;SDS011;48008;51.204;6.766;2023-03-15T10:59:25;20.23;;;3.80;;
62050;SDS011;48008;51.204;6.766;2023-03-15T11:02:18;15.35;;;4.30;;
62050;SDS011;48008;51.204;6.766;2023-03-15T11:04:49;14.32;;;3.70;;
62050;SDS011;48008;51.204;6.766;2023-03-15T11:07:26;13.05;;;3.63;;
62050;SDS011;48008;51.204;6.766;2023-03-15T11:09:55;14.07;;;3.90;;
62050;SDS011;48008;51.204;6.766;2023-03-15T11:12:26;12.93;;;4.00;;
62050;SDS011;48008;51.204;6.766;2023-03-15T11:14:57;11.10;;;3.85;;
62050;SDS011;48008;51.204;6.766;2023-03-15T11:17:33;18.48;;;3.50;;
62050;SDS011;48008;51.204;6.766;2023-03-15T11:22:39;11.52;;;3.70;;
62050;SDS011;48008;51.204;6.766;2023-03-15T11:25:14;14.20;;;3.30;;
62050;SDS011;48008;51.204;6.766;2023-03-15T11:27:42;12.57;;;3.28;;
62050;SDS011;48008;51.204;6.766;2023-03-15T11:30:12;11.75;;;3.50;;
62050;SDS011;48008;51.204;6.766;2023-03-15T11:32:41;16.27;;;3.88;;
62050;SDS011;48008;51.204;6.766;2023-03-15T11:35:11;17.60;;;3.83;;
62050;SDS011;48008;51.204;6.766;2023-03-15T11:37:41;15.73;;;4.05;;
62050;SDS011;48008;51.204;6.766;2023-03-15T11:40:16;14.00;;;3.80;;
62050;SDS011;48008;51.204;6.766;2023-03-15T11:43:04;16.88;;;3.33;;
62050;SDS011;48008;51.204;6.766;2023-03-15T11:45:35;19.73;;;3.70;;
62050;SDS011;48008;51.204;6.766;2023-03-15T11:48:45;13.57;;;3.08;;
62050;SDS011;48008;51.204;6.766;2023-03-15T11:51:17;11.90;;;2.95;;
62050;SDS011;48008;51.204;6.766;2023-03-15T11:54:03;16.48;;;3.10;;
62050;SDS011;48008;51.204;6.766;2023-03-15T11:56:46;14.23;;;3.40;;
62050;SDS011;48008;51.204;6.766;2023-03-15T11:59:27;9.52;;;2.95;;
62050;SDS011;48008;51.204;6.766;2023-03-15T12:02:00;14.90;;;3.35;;
62050;SDS011;48008;51.204;6.766;2023-03-15T12:04:49;13.90;;;2.85;;
62050;SDS011;48008;51.204;6.766;2023-03-15T12:09:51;14.63;;;2.97;;
62050;SDS011;48008;51.204;6.766;2023-03-15T12:17:58;10.43;;;2.88;;
62050;SDS011;48008;51.204;6.766;2023-03-15T12:20:36;13.00;;;3.10;;
62050;SDS011;48008;51.204;6.766;2023-03-15T12:23:30;11.80;;;2.97;;
62050;SDS011;48008;51.204;6.766;2023-03-15T12:28:38;12.48;;;3.22;;
62050;SDS011;48008;51.204;6.766;2023-03-15T12:31:10;19.42;;;3.30;;
62050;SDS011;48008;51.204;6.766;2023-03-15T12:33:44;11.73;;;2.92;;
62050;SDS011;48008;51.204;6.766;2023-03-15T12:36:15;13.50;;;3.08;;
62050;SDS011;48008;51.204;6.766;2023-03-15T12:38:57;15.05;;;3.30;;
62050;SDS011;48008;51.204;6.766;2023-03-15T12:41:42;14.20;;;3.05;;
62050;SDS011;48008;51.204;6.766;2023-03-15T12:44:22;17.55;;;2.92;;
62050;SDS011;48008;51.204;6.766;2023-03-15T12:46:53;24.40;;;3.45;;
62050;SDS011;48008;51.204;6.766;2023-03-15T12:52:12;12.52;;;3.35;;
62050;SDS011;48008;51.204;6.766;2023-03-15T12:54:50;12.10;;;3.15;;
62050;SDS011;48008;51.204;6.766;2023-03-15T12:57:26;14.18;;;3.47;;
62050;SDS011;48008;51.204;6.766;2023-03-15T12:59:56;14.60;;;3.90;;
62050;SDS011;48008;51.204;6.766;2023-03-15T13:02:35;16.13;;;3.53;;
62050;SDS011;48008;51.204;6.766;2023-03-15T13:05:14;16.67;;;3.53;;
62050;SDS011;48008;51.204;6.766;2023-03-15T13:07:48;18.27;;;3.40;;
62050;SDS011;48008;51.204;6.766;2023-03-15T13:10:24;16.02;;;3.63;;
62050;SDS011;48008;51.204;6.766;2023-03-15T13:13:00;15.43;;;3.40;;
62050;SDS011;48008;51.204;6.766;2023-03-15T13:15:41;15.73;;;3.67;;
62050;SDS011;48008;51.204;6.766;2023-03-15T13:18:20;16.85;;;4.75;;
62050;SDS011;48008;51.204;6.766;2023-03-15T13:21:00;19.23;;;4.65;;
62050;SDS011;48008;51.204;6.766;2023-03-15T13:23:50;12.50;;;4.07;;
62050;SDS011;48008;51.204;6.766;2023-03-15T13:31:35;13.70;;;3.88;;
62050;SDS011;48008;51.204;6.766;2023-03-15T13:34:19;16.20;;;5.57;;
62050;SDS011;48008;51.204;6.766;2023-03-15T13:36:53;20.38;;;5.00;;
62050;SDS011;48008;51.204;6.766;2023-03-15T13:39:22;17.27;;;4.07;;
62050;SDS011;48008;51.204;6.766;2023-03-15T13:42:15;21.00;;;4.60;;
62050;SDS011;48008;51.204;6.766;2023-03-15T13:44:46;10.57;;;3.65;;
62050;SDS011;48008;51.204;6.766;2023-03-15T13:47:18;14.52;;;3.70;;
62050;SDS011;48008;51.204;6.766;2023-03-15T13:49:47;21.27;;;3.70;;
62050;SDS011;48008;51.204;6.766;2023-03-15T13:52:17;15.15;;;3.55;;
62050;SDS011;48008;51.204;6.766;2023-03-15T13:54:44;12.10;;;3.55;;
62050;SDS011;48008;51.204;6.766;2023-03-15T13:57:12;21.15;;;3.78;;
62050;SDS011;48008;51.204;6.766;2023-03-15T13:59:43;11.27;;;3.00;;
62050;SDS011;48008;51.204;6.766;2023-03-15T14:02:16;16.15;;;3.05;;
62050;SDS011;48008;51.204;6.766;2023-03-15T14:04:48;14.50;;;3.40;;
62050;SDS011;48008;51.204;6.766;2023-03-15T14:07:26;16.80;;;4.25;;
62050;SDS011;48008;51.204;6.766;2023-03-15T14:10:24;16.15;;;3.70;;
62050;SDS011;48008;51.204;6.766;2023-03-15T14:12:51;14.27;;;3.38;;
62050;SDS011;48008;51.204;6.766;2023-03-15T14:15:20;12.15;;;3.33;;
62050;SDS011;48008;51.204;6.766;2023-03-15T14:20:43;14.50;;;2.88;;
62050;SDS011;48008;51.204;6.766;2023-03-15T14:23:15;17.20;;;3.53;;
62050;SDS011;48008;51.204;6.766;2023-03-15T14:25:49;13.02;;;2.85;;
62050;SDS011;48008;51.204;6.766;2023-03-15T14:28:17;9.43;;;3.03;;
62050;SDS011;48008;51.204;6.766;2023-03-15T14:30:53;11.18;;;3.00;;
62050;SDS011;48008;51.204;6.766;2023-03-15T14:33:25;10.90;;;2.95;;
62050;SDS011;48008;51.204;6.766;2023-03-15T14:35:59;11.68;;;3.13;;
62050;SDS011;48008;51.204;6.766;2023-03-15T14:38:32;14.32;;;2.97;;
62050;SDS011;48008;51.204;6.766;2023-03-15T14:41:19;11.98;;;3.03;;
62050;SDS011;48008;51.204;6.766;2023-03-15T14:43:56;19.98;;;3.20;;
62050;SDS011;48008;51.204;6.766;2023-03-15T14:46:23;12.38;;;3.00;;
62050;SDS011;48008;51.204;6.766;2023-03-15T14:48:50;13.52;;;3.10;;
62050;SDS011;48008;51.204;6.766;2023-03-15T14:51:19;16.35;;;3.20;;
62050;SDS011;48008;51.204;6.766;2023-03-15T14:53:47;15.07;;;2.90;;
62050;SDS011;48008;51.204;6.766;2023-03-15T14:56:17;14.75;;;3.40;;
62050;SDS011;48008;51.204;6.766;2023-03-15T14:58:45;12.60;;;3.15;;
62050;SDS011;48008;51.204;6.766;2023-03-15T15:01:12;15.60;;;3.75;;
62050;SDS011;48008;51.204;6.766;2023-03-15T15:03:51;14.90;;;3.60;;
62050;SDS011;48008;51.204;6.766;2023-03-15T15:06:24;14.38;;;3.22;;
62050;SDS011;48008;51.204;6.766;2023-03-15T15:08:54;11.02;;;3.08;;
62050;SDS011;48008;51.204;6.766;2023-03-15T15:11:22;10.95;;;3.42;;
62050;SDS011;48008;51.204;6.766;2023-03-15T15:13:50;12.73;;;3.20;;
62050;SDS011;48008;51.204;6.766;2023-03-15T15:16:16;17.40;;;3.53;;
62050;SDS011;48008;51.204;6.766;2023-03-15T15:18:43;13.77;;;3.72;;
62050;SDS011;48008;51.204;6.766;2023-03-15T15:21:11;19.67;;;3.53;;
62050;SDS011;48008;51.204;6.766;2023-03-15T15:23:43;13.70;;;3.50;;
62050;SDS011;48008;51.204;6.766;2023-03-15T15:26:23;16.05;;;3.45;;
62050;SDS011;48008;51.204;6.766;2023-03-15T15:28:52;13.13;;;3.28;;
62050;SDS011;48008;51.204;6.766;2023-03-15T15:31:19;16.25;;;3.80;;
62050;SDS011;48008;51.204;6.766;2023-03-15T15:33:48;15.25;;;3.35;;
62050;SDS011;48008;51.204;6.766;2023-03-15T15:36:20;14.60;;;4.10;;
62050;SDS011;48008;51.204;6.766;2023-03-15T15:38:49;14.75;;;3.70;;
62050;SDS011;48008;51.204;6.766;2023-03-15T15:41:18;12.90;;;3.30;;